Time;durP1;ratioP1;P1;durP2;ratioP2;P2;SDS_P1;SDS_P2;PMS_P1;PMS_P2;Temp;Humidity;BMP_temperature;BMP_pressure;BME280_temperature;BME280_humidity;BME280_pressure;Samples;Min_cycle;Max_cycle;Signal;HPM_P1;HPM_P2
2021/07/04 00:00:32;;;;;;;1.43;0.70;;;22.00;99.90;;;;;;5058428;28;20220;-82
2021/07/04 00:02:59;;;;;;;0.40;0.40;;;21.80;99.90;;;;;;5025780;28;20221;-83
2021/07/04 00:05:29;;;;;;;0.60;0.60;;;21.60;99.90;;;;;;5053289;28;20186;-82
2021/07/04 00:07:55;;;;;;;0.77;0.53;;;21.40;99.90;;;;;;5035183;28;20229;-82
2021/07/04 00:10:27;;;;;;;0.83;0.43;;;21.30;99.90;;;;;;5037493;28;20252;-83
2021/07/04 00:12:53;;;;;;;0.53;0.53;;;21.20;99.90;;;;;;5034662;28;20228;-82
2021/07/04 00:15:23;;;;;;;0.67;0.60;;;21.20;99.90;;;;;;5051298;28;20231;-83
2021/07/04 00:17:49;;;;;;;0.53;0.53;;;21.20;99.90;;;;;;5033915;28;20316;-81
2021/07/04 00:20:16;;;;;;;0.63;0.63;;;21.20;99.90;;;;;;5040949;28;20255;-81
2021/07/04 00:22:43;;;;;;;0.30;0.30;;;21.20;99.90;;;;;;5033213;28;20205;-83
2021/07/04 00:25:11;;;;;;;0.40;0.40;;;21.20;99.90;;;;;;5053393;28;20189;-83
2021/07/04 00:27:37;;;;;;;1.60;0.73;;;21.20;99.90;;;;;;5032714;28;20189;-82
2021/07/04 00:30:10;;;;;;;0.70;0.70;;;21.40;99.90;;;;;;5035282;28;20259;-83
2021/07/04 00:32:36;;;;;;;0.73;0.73;;;21.50;99.90;;;;;;5051819;28;20265;-83
2021/07/04 00:35:02;;;;;;;0.40;0.40;;;21.60;99.90;;;;;;5033143;28;20276;-82
2021/07/04 00:37:27;;;;;;;0.40;0.40;;;21.70;99.90;;;;;;5031867;28;20178;-83
2021/07/04 00:39:53;;;;;;;0.30;0.30;;;21.80;99.90;;;;;;5033697;28;20190;-81
2021/07/04 00:42:19;;;;;;;0.90;0.83;;;21.90;99.90;;;;;;5041473;28;20189;-83
2021/07/04 00:44:45;;;;;;;0.67;0.67;;;21.90;99.90;;;;;;5051160;28;20193;-83
2021/07/04 00:47:10;;;;;;;0.73;0.73;;;22.00;99.90;;;;;;5034939;28;20204;-83
2021/07/04 00:49:36;;;;;;;0.80;0.80;;;22.00;99.90;;;;;;5035680;28;20208;-82
2021/07/04 00:52:02;;;;;;;1.73;0.60;;;22.00;99.90;;;;;;5053350;28;20247;-82
2021/07/04 00:54:28;;;;;;;0.50;0.50;;;22.10;99.90;;;;;;5034699;28;20252;-82
2021/07/04 00:56:54;;;;;;;0.40;0.40;;;22.10;99.90;;;;;;5053960;28;20188;-83
2021/07/04 00:59:20;;;;;;;1.40;1.07;;;22.10;99.90;;;;;;5036207;28;20273;-83
2021/07/04 01:01:47;;;;;;;0.50;0.50;;;22.10;99.90;;;;;;5032617;28;20185;-83
2021/07/04 01:04:12;;;;;;;0.50;0.50;;;22.00;99.90;;;;;;5051754;28;20206;-82
2021/07/04 01:06:40;;;;;;;0.53;0.37;;;22.00;99.90;;;;;;5053375;28;20231;-82
2021/07/04 01:09:06;;;;;;;1.13;0.70;;;22.00;99.90;;;;;;5063847;28;20681;-83
2021/07/04 01:11:32;;;;;;;0.87;0.60;;;22.00;99.90;;;;;;5035252;28;20252;-83
2021/07/04 01:13:58;;;;;;;1.90;0.93;;;21.80;99.90;;;;;;5058530;28;20201;-83
2021/07/04 01:16:24;;;;;;;0.53;0.53;;;21.90;99.90;;;;;;5050857;28;20198;-83
2021/07/04 01:18:50;;;;;;;0.40;0.40;;;21.80;99.90;;;;;;5034373;28;20177;-83
2021/07/04 01:21:16;;;;;;;0.80;0.60;;;21.80;99.90;;;;;;5035873;28;20192;-83
2021/07/04 01:23:42;;;;;;;0.67;0.63;;;21.70;99.90;;;;;;5032468;28;20201;-83
2021/07/04 01:26:08;;;;;;;0.50;0.50;;;21.70;99.90;;;;;;5057999;28;20192;-83
2021/07/04 01:28:35;;;;;;;0.93;0.70;;;21.40;99.90;;;;;;5048814;28;20722;-83
2021/07/04 01:31:00;;;;;;;0.67;0.67;;;21.50;99.90;;;;;;5034215;28;20214;-83
2021/07/04 01:33:27;;;;;;;0.60;0.60;;;21.50;99.90;;;;;;5056860;28;20208;-83
2021/07/04 01:35:54;;;;;;;0.40;0.37;;;21.50;99.90;;;;;;5065300;28;20177;-83
2021/07/04 01:38:19;;;;;;;0.50;0.50;;;21.50;99.90;;;;;;5049134;28;20182;-83
2021/07/04 01:40:45;;;;;;;0.60;0.60;;;21.40;99.90;;;;;;5051054;28;20235;-83
2021/07/04 01:43:11;;;;;;;0.53;0.53;;;21.20;99.90;;;;;;5031546;28;20216;-83
2021/07/04 01:45:39;;;;;;;0.70;0.70;;;21.10;99.90;;;;;;5053594;28;20185;-82
2021/07/04 01:48:05;;;;;;;0.80;0.80;;;21.20;99.90;;;;;;5040403;28;20565;-83
2021/07/04 01:50:34;;;;;;;0.57;0.57;;;21.30;99.90;;;;;;5038134;28;20299;-83
2021/07/04 01:53:00;;;;;;;0.67;0.67;;;21.30;99.90;;;;;;5053889;28;20229;-83
2021/07/04 01:55:26;;;;;;;0.43;0.43;;;21.40;99.90;;;;;;5052598;28;20213;-82
2021/07/04 01:57:53;;;;;;;2.23;1.20;;;21.10;99.90;;;;;;5045669;28;20173;-83
2021/07/04 02:00:28;;;;;;;1.07;0.83;;;20.80;99.90;;;;;;5036682;28;20244;-84
2021/07/04 02:02:57;;;;;;;0.83;0.50;;;20.80;99.90;;;;;;5056349;28;20220;-84
2021/07/04 02:05:23;;;;;;;3.67;0.57;;;20.80;99.90;;;;;;5037536;28;20190;-83
2021/07/04 02:07:50;;;;;;;0.30;0.30;;;20.80;99.90;;;;;;5058347;28;20185;-83
2021/07/04 02:10:22;;;;;;;0.53;0.50;;;20.60;99.90;;;;;;5054895;28;20607;-83
2021/07/04 02:12:47;;;;;;;0.30;0.30;;;20.60;99.90;;;;;;5054486;28;20247;-83
2021/07/04 02:15:20;;;;;;;0.73;0.73;;;20.70;99.90;;;;;;5039582;28;20218;-82
2021/07/04 02:17:46;;;;;;;0.73;0.70;;;20.60;99.90;;;;;;5064775;28;20178;-81
2021/07/04 02:20:35;;;;;;;2.00;0.87;;;20.40;99.90;;;;;;5038028;28;20222;-83
2021/07/04 02:23:04;;;;;;;0.40;0.40;;;20.20;99.90;;;;;;5062047;28;20280;-82
2021/07/04 02:25:30;;;;;;;0.43;0.43;;;20.30;99.90;;;;;;5041212;28;20181;-82
2021/07/04 02:27:56;;;;;;;0.43;0.40;;;20.40;99.90;;;;;;5034781;28;20272;-83
2021/07/04 02:30:22;;;;;;;1.00;0.60;;;20.60;99.90;;;;;;5057491;28;20202;-83
2021/07/04 02:32:48;;;;;;;0.30;0.30;;;20.50;99.90;;;;;;5036000;28;20194;-82
2021/07/04 02:35:14;;;;;;;0.60;0.60;;;20.40;99.90;;;;;;5035458;28;20205;-83
2021/07/04 02:37:40;;;;;;;0.77;0.77;;;20.20;99.90;;;;;;5052142;28;20259;-83
2021/07/04 02:40:07;;;;;;;0.93;0.70;;;20.30;99.90;;;;;;5054906;28;20199;-83
2021/07/04 02:42:32;;;;;;;0.30;0.30;;;20.20;99.90;;;;;;5047206;28;20205;-83
2021/07/04 02:45:00;;;;;;;0.93;0.60;;;20.30;99.90;;;;;;5036826;28;20564;-82
2021/07/04 02:47:27;;;;;;;0.93;0.87;;;20.30;99.90;;;;;;5036036;28;20182;-83
2021/07/04 02:49:53;;;;;;;0.70;0.60;;;20.40;99.90;;;;;;5046275;28;20291;-83
2021/07/04 02:52:18;;;;;;;0.60;0.60;;;20.40;99.90;;;;;;5037079;28;20265;-83
2021/07/04 02:54:44;;;;;;;0.20;0.20;;;20.10;99.90;;;;;;5035896;28;20189;-83
2021/07/04 02:57:10;;;;;;;0.60;0.60;;;20.00;99.90;;;;;;5036337;28;20279;-83
2021/07/04 02:59:35;;;;;;;1.00;0.70;;;19.80;99.90;;;;;;5035951;28;20184;-83
2021/07/04 03:02:01;;;;;;;0.37;0.37;;;19.70;99.90;;;;;;5035785;28;20186;-83
2021/07/04 03:04:26;;;;;;;0.63;0.63;;;19.80;99.90;;;;;;5065193;28;20619;-82
2021/07/04 03:06:54;;;;;;;0.77;0.57;;;19.70;99.90;;;;;;5055024;28;20810;-83
2021/07/04 03:09:20;;;;;;;0.70;0.70;;;19.60;99.90;;;;;;5035550;28;20189;-83
2021/07/04 03:11:46;;;;;;;1.07;1.00;;;19.50;99.90;;;;;;5052423;28;20190;-84
2021/07/04 03:14:11;;;;;;;0.70;0.70;;;19.50;99.90;;;;;;5035433;28;20201;-82
2021/07/04 03:16:37;;;;;;;2.03;0.77;;;19.50;99.90;;;;;;5053493;28;20728;-83
2021/07/04 03:19:03;;;;;;;0.43;0.43;;;19.40;99.90;;;;;;5053380;28;20574;-83
2021/07/04 03:21:28;;;;;;;0.60;0.60;;;19.50;99.90;;;;;;5056189;28;20691;-81
2021/07/04 03:23:54;;;;;;;0.50;0.50;;;19.60;99.90;;;;;;5044941;28;20202;-82
2021/07/04 03:26:20;;;;;;;0.40;0.40;;;19.70;99.90;;;;;;5052400;28;20177;-83
2021/07/04 03:28:46;;;;;;;0.30;0.30;;;19.90;99.90;;;;;;5037063;28;20243;-83
2021/07/04 03:31:12;;;;;;;0.40;0.40;;;19.80;99.90;;;;;;5037562;28;20214;-83
2021/07/04 03:33:38;;;;;;;0.40;0.40;;;19.80;99.90;;;;;;5035098;28;20280;-82
2021/07/04 03:36:04;;;;;;;0.53;0.53;;;19.90;99.90;;;;;;5034094;28;20205;-83
2021/07/04 03:38:30;;;;;;;2.03;0.93;;;19.70;99.90;;;;;;5044765;28;20578;-83
2021/07/04 03:40:56;;;;;;;1.13;0.73;;;19.80;99.90;;;;;;5037837;28;20189;-83
2021/07/04 03:43:22;;;;;;;0.47;0.40;;;19.80;99.90;;;;;;5039758;28;20197;-83
2021/07/04 03:45:48;;;;;;;1.57;0.83;;;19.70;99.90;;;;;;5052653;28;20173;-83
2021/07/04 03:48:13;;;;;;;1.40;1.30;;;19.60;99.90;;;;;;5051742;28;20276;-83
2021/07/04 03:50:39;;;;;;;1.67;0.90;;;19.30;99.90;;;;;;5038727;28;20200;-82
2021/07/04 03:53:05;;;;;;;5.90;0.50;;;19.30;99.90;;;;;;5036598;28;20255;-83
2021/07/04 03:55:31;;;;;;;0.87;0.87;;;19.40;99.90;;;;;;5034207;28;20729;-83
2021/07/04 03:57:56;;;;;;;0.63;0.40;;;19.50;99.90;;;;;;5038121;28;20642;-83
2021/07/04 04:00:22;;;;;;;1.03;0.67;;;19.50;99.90;;;;;;5039687;28;20208;-82
2021/07/04 04:02:48;;;;;;;0.93;0.83;;;19.30;99.90;;;;;;5052248;28;20207;-82
2021/07/04 04:05:14;;;;;;;0.97;0.50;;;19.10;99.90;;;;;;5042446;28;20205;-83
2021/07/04 04:07:40;;;;;;;0.73;0.57;;;19.20;99.90;;;;;;5042725;28;20185;-83
2021/07/04 04:10:07;;;;;;;0.60;0.60;;;19.20;99.90;;;;;;5052037;28;20237;-82
2021/07/04 04:12:33;;;;;;;0.70;0.70;;;19.40;99.90;;;;;;5035350;28;20712;-83
2021/07/04 04:15:02;;;;;;;0.70;0.70;;;19.30;99.90;;;;;;5035073;28;20205;-83
2021/07/04 04:17:29;;;;;;;0.40;0.40;;;19.30;99.90;;;;;;5026704;28;20201;-83
2021/07/04 04:19:55;;;;;;;0.40;0.40;;;19.30;99.90;;;;;;5031950;28;20181;-82
2021/07/04 04:22:20;;;;;;;1.03;0.93;;;19.30;99.90;;;;;;5052009;28;20818;-82
2021/07/04 04:24:47;;;;;;;0.40;0.30;;;19.30;99.90;;;;;;5032339;28;20273;-83
2021/07/04 04:27:12;;;;;;;1.00;0.47;;;19.40;99.90;;;;;;5049676;28;20741;-83
2021/07/04 04:29:38;;;;;;;1.13;0.70;;;19.60;99.90;;;;;;5050066;28;20193;-82
2021/07/04 04:32:05;;;;;;;0.80;0.80;;;19.80;99.90;;;;;;5050719;28;20347;-83
2021/07/04 04:34:31;;;;;;;1.47;0.60;;;19.70;99.90;;;;;;5035567;28;20225;-82
2021/07/04 04:36:58;;;;;;;1.20;1.10;;;19.60;99.90;;;;;;5035141;28;20189;-83
2021/07/04 04:39:23;;;;;;;1.37;0.77;;;19.70;99.90;;;;;;5034129;28;20190;-81
2021/07/04 04:41:49;;;;;;;1.00;0.70;;;19.60;99.90;;;;;;5038248;28;20742;-82
2021/07/04 04:44:16;;;;;;;0.77;0.77;;;19.70;99.90;;;;;;5030595;28;20230;-82
2021/07/04 04:46:41;;;;;;;0.50;0.50;;;19.90;99.90;;;;;;5064749;28;20269;-83
2021/07/04 04:49:08;;;;;;;0.70;0.70;;;19.90;99.90;;;;;;5058295;28;20768;-82
2021/07/04 04:51:34;;;;;;;0.87;0.80;;;19.60;99.90;;;;;;5044284;28;20679;-82
2021/07/04 04:53:59;;;;;;;0.40;0.30;;;19.50;99.90;;;;;;5061047;28;20227;-82
2021/07/04 04:56:25;;;;;;;3.33;0.93;;;19.60;99.90;;;;;;5049743;28;20190;-82
2021/07/04 04:58:51;;;;;;;0.43;0.43;;;19.60;99.90;;;;;;5036824;28;20235;-83
2021/07/04 05:01:17;;;;;;;0.60;0.60;;;19.70;99.90;;;;;;5050227;28;20192;-83
2021/07/04 05:03:44;;;;;;;0.33;0.33;;;19.60;99.90;;;;;;5033535;28;20202;-83
2021/07/04 05:06:11;;;;;;;1.10;0.97;;;19.50;99.90;;;;;;5035374;28;20213;-82
2021/07/04 05:08:36;;;;;;;5.77;1.60;;;19.50;99.90;;;;;;5037572;28;20615;-82
2021/07/04 05:11:02;;;;;;;0.50;0.50;;;19.50;99.90;;;;;;5031884;28;20213;-82
2021/07/04 05:13:28;;;;;;;1.57;0.53;;;19.60;99.90;;;;;;5052771;28;20202;-85
2021/07/04 05:15:53;;;;;;;1.60;1.20;;;19.70;99.90;;;;;;5036469;28;20185;-85
2021/07/04 05:18:19;;;;;;;0.63;0.63;;;19.60;99.90;;;;;;5055483;28;20178;-83
2021/07/04 05:20:45;;;;;;;0.40;0.40;;;19.70;99.90;;;;;;5058582;28;20186;-84
2021/07/04 05:23:10;;;;;;;1.00;0.87;;;19.70;99.90;;;;;;5038255;28;20201;-84
2021/07/04 05:25:36;;;;;;;0.60;0.60;;;19.80;99.90;;;;;;5054451;28;20189;-85
2021/07/04 05:28:02;;;;;;;0.47;0.47;;;20.00;99.90;;;;;;5052640;28;20227;-84
2021/07/04 05:30:28;;;;;;;0.60;0.60;;;20.30;99.90;;;;;;5039349;28;20328;-85
2021/07/04 05:32:54;;;;;;;0.57;0.53;;;20.60;99.90;;;;;;5034373;28;20206;-84
2021/07/04 05:35:19;;;;;;;0.50;0.50;;;20.70;99.90;;;;;;5054814;28;20178;-84
2021/07/04 05:37:46;;;;;;;0.73;0.73;;;20.70;99.90;;;;;;5036644;28;20581;-85
2021/07/04 05:40:15;;;;;;;0.87;0.70;;;20.50;99.90;;;;;;5039793;28;20818;-84
2021/07/04 05:42:42;;;;;;;1.63;1.10;;;20.40;99.90;;;;;;5042631;28;20439;-84
2021/07/04 05:45:24;;;;;;;0.87;0.83;;;20.30;99.90;;;;;;5039302;28;20188;-85
2021/07/04 05:47:50;;;;;;;0.83;0.60;;;20.40;99.90;;;;;;5040991;28;20185;-84
2021/07/04 05:50:16;;;;;;;0.73;0.73;;;20.20;99.90;;;;;;5052820;28;20200;-84
2021/07/04 05:52:42;;;;;;;0.70;0.70;;;20.10;99.90;;;;;;5037702;28;20752;-84
2021/07/04 05:55:09;;;;;;;1.67;1.13;;;20.30;99.90;;;;;;5034994;28;20181;-84
2021/07/04 05:57:34;;;;;;;1.07;0.97;;;20.30;99.90;;;;;;5036182;28;20865;-84
2021/07/04 06:00:00;;;;;;;2.80;1.40;;;20.70;99.90;;;;;;5053371;28;20181;-84
2021/07/04 06:02:25;;;;;;;0.50;0.50;;;21.10;99.90;;;;;;5043215;28;20184;-84
2021/07/04 06:04:51;;;;;;;0.70;0.70;;;21.10;99.90;;;;;;5038954;28;20240;-84
2021/07/04 06:07:17;;;;;;;0.93;0.80;;;21.50;99.90;;;;;;5053198;28;20182;-84
2021/07/04 06:09:45;;;;;;;0.53;0.53;;;21.90;99.90;;;;;;5034948;28;20182;-85
2021/07/04 06:12:11;;;;;;;0.23;0.23;;;22.10;99.90;;;;;;5054568;28;20247;-85
2021/07/04 06:14:37;;;;;;;1.10;0.77;;;21.90;99.90;;;;;;5032685;28;20190;-85
2021/07/04 06:17:03;;;;;;;0.30;0.30;;;22.10;99.90;;;;;;5034360;28;21223;-85
2021/07/04 06:19:29;;;;;;;0.47;0.47;;;22.20;99.90;;;;;;5055691;28;20177;-85
2021/07/04 06:21:55;;;;;;;0.60;0.50;;;22.20;99.90;;;;;;5034917;28;20554;-85
2021/07/04 06:24:20;;;;;;;0.50;0.50;;;22.40;99.90;;;;;;5050757;28;20220;-85
2021/07/04 06:26:46;;;;;;;0.63;0.63;;;22.60;99.90;;;;;;5053009;28;20531;-84
2021/07/04 06:29:12;;;;;;;0.77;0.60;;;22.70;99.90;;;;;;5050051;28;20174;-85
2021/07/04 06:31:37;;;;;;;0.67;0.67;;;22.20;99.90;;;;;;5039115;28;20288;-85
2021/07/04 06:34:03;;;;;;;1.27;0.90;;;22.30;99.90;;;;;;5042734;28;20201;-85
2021/07/04 06:36:29;;;;;;;1.43;0.73;;;22.60;99.90;;;;;;5038945;28;20232;-84
2021/07/04 06:38:55;;;;;;;1.27;1.17;;;22.70;99.90;;;;;;5054398;28;20182;-85
2021/07/04 06:41:21;;;;;;;1.03;0.93;;;22.30;99.90;;;;;;5055407;28;20181;-85
2021/07/04 06:43:47;;;;;;;2.30;0.80;;;22.30;99.90;;;;;;5041010;28;20211;-85
2021/07/04 06:46:13;;;;;;;0.83;0.83;;;22.70;99.90;;;;;;5062303;28;20179;-84
2021/07/04 06:48:39;;;;;;;1.27;0.93;;;22.70;99.90;;;;;;5040499;28;20268;-84
2021/07/04 06:51:05;;;;;;;0.60;0.50;;;22.10;99.90;;;;;;5038757;28;20557;-86
2021/07/04 06:53:31;;;;;;;0.53;0.53;;;22.10;99.90;;;;;;5040799;28;20205;-85
2021/07/04 06:55:57;;;;;;;1.57;1.03;;;22.50;99.90;;;;;;5059856;28;20744;-85
2021/07/04 06:58:23;;;;;;;0.80;0.73;;;22.90;99.90;;;;;;5036059;28;20182;-85
2021/07/04 07:00:48;;;;;;;0.60;0.60;;;22.80;99.90;;;;;;5036264;28;20189;-84
2021/07/04 07:03:15;;;;;;;0.60;0.60;;;23.00;99.90;;;;;;5047968;28;20206;-85
2021/07/04 07:05:40;;;;;;;1.07;0.80;;;23.00;99.90;;;;;;5034513;28;20182;-85
2021/07/04 07:08:06;;;;;;;0.53;0.53;;;23.20;99.90;;;;;;5067150;28;20280;-85
2021/07/04 07:10:32;;;;;;;0.60;0.60;;;23.50;99.90;;;;;;5038638;28;20292;-85
2021/07/04 07:12:58;;;;;;;0.60;0.60;;;23.90;99.90;;;;;;5059806;28;20703;-85
2021/07/04 07:15:24;;;;;;;0.57;0.57;;;23.90;99.90;;;;;;5052673;28;20269;-86
2021/07/04 07:17:50;;;;;;;0.50;0.50;;;23.10;99.90;;;;;;5053134;28;20252;-85
2021/07/04 07:20:16;;;;;;;1.30;0.57;;;22.80;99.90;;;;;;5053421;28;20186;-85
2021/07/04 07:22:42;;;;;;;0.70;0.70;;;22.50;99.90;;;;;;5036426;28;20207;-85
2021/07/04 07:25:09;;;;;;;0.70;0.70;;;22.30;99.90;;;;;;5039403;28;20217;-85
2021/07/04 07:27:35;;;;;;;0.80;0.80;;;22.30;99.90;;;;;;5037691;28;20190;-85
2021/07/04 07:30:01;;;;;;;1.23;0.60;;;22.40;99.90;;;;;;5035202;28;20214;-85
2021/07/04 07:32:27;;;;;;;0.60;0.60;;;22.90;99.90;;;;;;5053184;28;20220;-85
2021/07/04 07:34:53;;;;;;;0.83;0.70;;;23.30;99.90;;;;;;5044331;28;20177;-83
2021/07/04 07:37:20;;;;;;;0.60;0.60;;;23.00;99.90;;;;;;5034538;28;20189;-84
2021/07/04 07:39:45;;;;;;;0.73;0.70;;;23.50;99.90;;;;;;5056809;28;20189;-85
2021/07/04 07:42:11;;;;;;;0.97;0.97;;;23.70;99.90;;;;;;5050681;28;20566;-85
2021/07/04 07:44:37;;;;;;;0.73;0.67;;;23.60;99.90;;;;;;5054334;28;20285;-85
2021/07/04 07:47:04;;;;;;;2.47;0.57;;;23.50;99.90;;;;;;5065470;28;20221;-85
2021/07/04 07:49:30;;;;;;;0.70;0.70;;;23.70;99.90;;;;;;5066952;28;20724;-85
2021/07/04 07:51:55;;;;;;;1.37;0.60;;;24.00;99.90;;;;;;5045598;28;20215;-85
2021/07/04 07:54:22;;;;;;;0.60;0.60;;;23.90;99.90;;;;;;5037203;28;20213;-86
2021/07/04 07:56:48;;;;;;;1.00;0.80;;;23.90;99.90;;;;;;5040571;28;20564;-85
2021/07/04 07:59:14;;;;;;;1.70;1.30;;;23.70;99.90;;;;;;5041505;28;20227;-85
2021/07/04 08:01:39;;;;;;;3.63;1.07;;;23.30;99.90;;;;;;5045435;28;20181;-85
2021/07/04 08:04:05;;;;;;;0.60;0.60;;;23.60;99.90;;;;;;5057726;28;20284;-85
2021/07/04 08:06:31;;;;;;;0.47;0.47;;;23.90;99.90;;;;;;5052904;28;20189;-85
2021/07/04 08:08:56;;;;;;;0.77;0.40;;;24.20;99.90;;;;;;5038840;28;20185;-85
2021/07/04 08:11:22;;;;;;;0.70;0.70;;;24.40;99.90;;;;;;5038025;28;20240;-85
2021/07/04 08:13:48;;;;;;;1.30;1.20;;;24.40;99.90;;;;;;5042455;28;20193;-85
2021/07/04 08:16:16;;;;;;;0.70;0.70;;;24.30;99.90;;;;;;5051962;28;20245;-85
2021/07/04 08:18:42;;;;;;;0.70;0.60;;;24.40;99.90;;;;;;5072139;28;20173;-85
2021/07/04 08:21:08;;;;;;;0.93;0.90;;;24.60;99.90;;;;;;5053757;28;20189;-85
2021/07/04 08:23:33;;;;;;;0.60;0.60;;;24.70;99.90;;;;;;5056002;28;20209;-85
2021/07/04 08:25:59;;;;;;;0.67;0.67;;;24.70;99.90;;;;;;5065948;28;20213;-85
2021/07/04 08:28:25;;;;;;;1.30;1.20;;;24.80;99.90;;;;;;5050692;28;20200;-85
2021/07/04 08:30:50;;;;;;;0.77;0.77;;;24.70;99.90;;;;;;5066401;28;20197;-85
2021/07/04 08:33:16;;;;;;;1.33;0.70;;;24.80;99.90;;;;;;5065332;28;20205;-85
2021/07/04 08:35:42;;;;;;;0.77;0.70;;;24.80;99.90;;;;;;5062463;28;20194;-85
2021/07/04 08:38:08;;;;;;;0.67;0.63;;;25.00;99.90;;;;;;5059634;28;20288;-85
2021/07/04 08:40:34;;;;;;;0.80;0.70;;;24.80;99.90;;;;;;5063987;28;20212;-85
2021/07/04 08:43:00;;;;;;;2.47;1.03;;;25.00;99.90;;;;;;5056061;28;20205;-85
2021/07/04 08:45:26;;;;;;;0.80;0.80;;;25.00;99.90;;;;;;5065208;28;20685;-85
2021/07/04 08:47:52;;;;;;;0.90;0.90;;;25.00;99.90;;;;;;5058243;28;20190;-85
2021/07/04 08:50:18;;;;;;;1.70;0.73;;;25.10;99.90;;;;;;5072737;28;20235;-84
2021/07/04 08:52:43;;;;;;;0.60;0.60;;;25.20;99.90;;;;;;5051452;28;20205;-85
2021/07/04 08:55:11;;;;;;;1.27;0.60;;;25.50;99.90;;;;;;5075983;28;20186;-84
2021/07/04 08:57:37;;;;;;;1.10;0.93;;;25.70;99.90;;;;;;5047717;28;20174;-84
2021/07/04 09:00:06;;;;;;;0.70;0.70;;;26.10;99.90;;;;;;5051613;28;20261;-86
2021/07/04 09:02:34;;;;;;;1.10;0.97;;;26.10;99.90;;;;;;5049716;28;20300;-85
2021/07/04 09:05:11;;;;;;;0.60;0.60;;;26.20;99.90;;;;;;5065817;28;20641;-86
2021/07/04 09:07:39;;;;;;;1.30;0.83;;;26.20;99.90;;;;;;5058498;28;20252;-85
2021/07/04 09:10:05;;;;;;;1.37;1.20;;;26.90;99.90;;;;;;5049732;28;20314;-85
2021/07/04 09:12:46;;;;;;;1.13;0.63;;;26.10;99.90;;;;;;5048862;28;20587;-85
2021/07/04 09:15:17;;;;;;;0.90;0.63;;;26.60;99.90;;;;;;5045575;28;20192;-85
2021/07/04 09:17:48;;;;;;;1.70;1.20;;;26.20;99.90;;;;;;5069156;28;20193;-85
2021/07/04 09:20:16;;;;;;;0.60;0.60;;;25.20;99.90;;;;;;5072648;28;20181;-85
2021/07/04 09:22:46;;;;;;;0.43;0.43;;;25.60;99.90;;;;;;5053793;28;20213;-85
2021/07/04 09:25:19;;;;;;;2.00;0.70;;;26.00;99.90;;;;;;5043295;28;20190;-85
2021/07/04 09:28:05;;;;;;;0.87;0.83;;;26.60;99.90;;;;;;5063613;28;20191;-85
2021/07/04 09:30:52;;;;;;;1.37;0.80;;;27.00;99.90;;;;;;5032371;28;20218;-85
2021/07/04 09:33:27;;;;;;;1.80;1.17;;;27.20;99.90;;;;;;5056738;28;20205;-85
2021/07/04 09:36:07;;;;;;;1.20;1.10;;;26.50;99.90;;;;;;5036213;28;20235;-85
2021/07/04 09:38:35;;;;;;;1.00;0.80;;;26.50;99.90;;;;;;5031962;28;20181;-85
2021/07/04 09:41:02;;;;;;;1.00;0.90;;;26.80;99.90;;;;;;5055856;28;20193;-85
2021/07/04 09:43:29;;;;;;;1.47;1.40;;;27.10;99.90;;;;;;5056142;28;20202;-84
2021/07/04 09:46:04;;;;;;;1.40;1.07;;;27.10;99.90;;;;;;5053612;28;20185;-85
2021/07/04 09:48:30;;;;;;;2.40;0.97;;;26.50;99.90;;;;;;5054232;28;20186;-85
2021/07/04 09:51:01;;;;;;;0.77;0.77;;;26.80;99.90;;;;;;5051239;28;20213;-85
2021/07/04 09:53:39;;;;;;;1.63;1.10;;;26.70;99.90;;;;;;5035746;28;20206;-84
2021/07/04 09:56:13;;;;;;;0.93;0.87;;;27.20;99.90;;;;;;5054342;28;20193;-85
2021/07/04 09:58:42;;;;;;;0.80;0.80;;;27.60;99.90;;;;;;5032399;28;20182;-85
2021/07/04 10:01:08;;;;;;;1.20;1.17;;;27.90;99.90;;;;;;5037920;28;20209;-85
2021/07/04 10:03:44;;;;;;;0.87;0.73;;;28.10;99.90;;;;;;5041133;28;20205;-85
2021/07/04 10:06:11;;;;;;;1.07;0.80;;;28.20;99.90;;;;;;5063821;28;20188;-85
2021/07/04 10:08:41;;;;;;;0.80;0.80;;;28.20;99.90;;;;;;5045271;28;20248;-86
2021/07/04 10:11:14;;;;;;;1.33;0.90;;;28.00;99.90;;;;;;5041745;28;21719;-85
2021/07/04 10:13:44;;;;;;;1.50;0.90;;;28.10;99.90;;;;;;5036588;28;20202;-85
2021/07/04 10:16:14;;;;;;;2.27;1.00;;;27.90;99.90;;;;;;5056181;28;20251;-85
2021/07/04 10:18:45;;;;;;;1.07;0.80;;;27.90;99.90;;;;;;5037249;28;20236;-85
2021/07/04 10:21:12;;;;;;;1.13;0.80;;;28.00;99.90;;;;;;5041321;28;20185;-84
2021/07/04 10:23:44;;;;;;;2.23;1.00;;;27.80;99.90;;;;;;5061532;28;20204;-84
2021/07/04 10:26:11;;;;;;;1.17;0.80;;;27.90;99.90;;;;;;5056679;28;20196;-85
2021/07/04 10:28:39;;;;;;;0.43;0.43;;;27.60;99.90;;;;;;5059432;28;20178;-85
2021/07/04 10:31:13;;;;;;;0.67;0.67;;;27.50;99.90;;;;;;5053621;28;20211;-85
2021/07/04 10:33:39;;;;;;;1.13;1.03;;;27.20;99.90;;;;;;5036500;28;20196;-84
2021/07/04 10:36:13;;;;;;;1.10;1.10;;;26.90;99.90;;;;;;5072481;28;20216;-84
2021/07/04 10:38:40;;;;;;;1.30;1.10;;;26.70;99.90;;;;;;5038934;28;20181;-84
2021/07/04 10:41:11;;;;;;;0.43;0.43;;;26.20;99.90;;;;;;5036200;28;20217;-85
2021/07/04 10:44:00;;;;;;;0.70;0.70;;;26.10;99.90;;;;;;5037203;28;20201;-85
2021/07/04 10:49:24;;;;;;;1.10;0.97;;;25.40;99.90;;;;;;5047117;28;20189;-85
2021/07/04 10:52:05;;;;;;;1.23;0.57;;;25.30;99.90;;;;;;5048466;28;20205;-85
2021/07/04 10:54:50;;;;;;;1.47;0.73;;;25.10;99.90;;;;;;5031407;28;20365;-86
2021/07/04 10:57:29;;;;;;;0.90;0.90;;;25.00;99.90;;;;;;5053519;28;20180;-84
2021/07/04 11:00:04;;;;;;;0.60;0.60;;;24.90;99.90;;;;;;5039046;28;20186;-85
2021/07/04 11:02:49;;;;;;;0.80;0.57;;;24.60;99.90;;;;;;5041419;28;20183;-83
2021/07/04 11:05:17;;;;;;;1.27;1.17;;;24.50;99.90;;;;;;5059225;28;20177;-83
2021/07/04 11:07:55;;;;;;;1.27;0.87;;;24.30;99.90;;;;;;5044883;28;20181;-83
2021/07/04 11:10:26;;;;;;;0.20;0.20;;;24.10;99.90;;;;;;5048625;28;20274;-83
2021/07/04 11:12:55;;;;;;;0.47;0.47;;;24.00;99.90;;;;;;5051977;28;20711;-82
2021/07/04 11:15:20;;;;;;;0.47;0.47;;;24.00;99.90;;;;;;5041389;28;20202;-83
2021/07/04 11:17:55;;;;;;;0.30;0.30;;;24.00;99.90;;;;;;5056161;28;20646;-84
2021/07/04 11:20:22;;;;;;;0.50;0.50;;;24.20;99.90;;;;;;5036429;28;20734;-83
2021/07/04 11:23:05;;;;;;;0.67;0.67;;;24.20;99.90;;;;;;5055366;28;20284;-83
2021/07/04 11:25:44;;;;;;;0.83;0.83;;;24.30;99.90;;;;;;5063233;28;20185;-83
2021/07/04 11:28:16;;;;;;;3.57;0.50;;;24.30;99.90;;;;;;5059295;28;20192;-84
2021/07/04 11:31:02;;;;;;;0.60;0.60;;;24.40;99.90;;;;;;5042179;28;20209;-83
2021/07/04 11:33:38;;;;;;;1.70;0.90;;;24.30;99.90;;;;;;5062633;28;20216;-83
2021/07/04 11:36:03;;;;;;;1.13;1.00;;;23.80;99.90;;;;;;5070289;28;20189;-83
2021/07/04 11:38:36;;;;;;;0.77;0.77;;;23.60;99.90;;;;;;5057398;28;20191;-82
2021/07/04 11:41:03;;;;;;;0.63;0.63;;;23.20;99.90;;;;;;5070138;28;20185;-82
2021/07/04 11:43:30;;;;;;;0.37;0.37;;;23.10;99.90;;;;;;5055890;28;20227;-83
2021/07/04 11:46:01;;;;;;;1.10;0.57;;;22.90;99.90;;;;;;5054629;28;20193;-85
2021/07/04 11:48:46;;;;;;;0.70;0.70;;;22.50;99.90;;;;;;5056888;28;20178;-84
2021/07/04 11:51:21;;;;;;;0.20;0.20;;;22.30;99.90;;;;;;5038878;28;20205;-84
2021/07/04 11:53:52;;;;;;;0.40;0.40;;;22.00;99.90;;;;;;5033775;28;20229;-84
2021/07/04 11:56:18;;;;;;;0.33;0.33;;;21.90;99.90;;;;;;5059180;28;20648;-84
2021/07/04 11:58:44;;;;;;;2.90;0.57;;;21.80;99.90;;;;;;5039104;28;20215;-84
2021/07/04 12:01:23;;;;;;;0.30;0.30;;;21.50;99.90;;;;;;5051755;28;20186;-84
2021/07/04 12:03:53;;;;;;;0.27;0.27;;;21.30;99.90;;;;;;5039163;28;20205;-84
2021/07/04 12:06:19;;;;;;;0.30;0.30;;;21.10;99.90;;;;;;5034833;28;20320;-84
2021/07/04 12:08:55;;;;;;;0.67;0.50;;;20.90;99.90;;;;;;5054668;28;20193;-84
2021/07/04 12:11:40;;;;;;;0.20;0.20;;;20.90;99.90;;;;;;5035990;28;20658;-84
2021/07/04 12:14:20;;;;;;;0.70;0.70;;;20.70;99.90;;;;;;5057951;28;20197;-83
2021/07/04 12:16:46;;;;;;;0.53;0.53;;;20.60;99.90;;;;;;5051168;28;20201;-84
2021/07/04 12:19:34;;;;;;;1.60;0.73;;;20.50;99.90;;;;;;5059435;28;20173;-84
2021/07/04 12:22:02;;;;;;;1.17;0.70;;;20.50;99.90;;;;;;5051582;28;20284;-84
2021/07/04 12:24:37;;;;;;;0.50;0.50;;;20.40;99.90;;;;;;5037863;28;20763;-84
2021/07/04 12:27:03;;;;;;;2.37;0.63;;;20.60;99.90;;;;;;5042395;28;20185;-84
2021/07/04 12:29:29;;;;;;;1.53;0.60;;;20.60;99.90;;;;;;5059809;28;20193;-84
2021/07/04 12:32:03;;;;;;;0.30;0.30;;;20.80;99.90;;;;;;5056053;28;20250;-84
2021/07/04 12:34:32;;;;;;;0.47;0.47;;;20.70;99.90;;;;;;5054561;28;20280;-84
2021/07/04 12:36:58;;;;;;;0.20;0.20;;;20.50;99.90;;;;;;5055189;28;20182;-84
2021/07/04 12:39:34;;;;;;;1.50;0.70;;;20.60;99.90;;;;;;5047554;28;20236;-86
2021/07/04 12:41:59;;;;;;;0.30;0.30;;;20.70;99.90;;;;;;5049822;28;20188;-84
2021/07/04 12:44:26;;;;;;;0.40;0.40;;;20.80;99.90;;;;;;5054641;28;20209;-84
2021/07/04 12:46:52;;;;;;;0.50;0.50;;;20.70;99.90;;;;;;5040542;28;20194;-83
2021/07/04 12:49:17;;;;;;;0.20;0.20;;;20.70;99.90;;;;;;5036242;28;20188;-84
2021/07/04 12:51:45;;;;;;;0.47;0.47;;;20.90;99.90;;;;;;5061656;28;20206;-84
2021/07/04 12:54:21;;;;;;;0.30;0.30;;;20.70;99.90;;;;;;5052333;28;20208;-85